Terminal Aerodrome Forecast
Issued by NWS

Current Version | Previous Version | Text Only | Print | Product List | Glossary Off
Versions: 1 2 3 4 5 6 7 8 9 10 11 12 13 14 15 16 17 18 19 20 21 22 23 24

000
FTUS41 KRLX 261100
TAFCKB
TAF
KCKB 261125Z 2612/2712 02007KT 6SM -SNRA BR SCT020 BKN060 OVC100
     FM261500 00000KT 3SM -RASN BR SCT015 BKN035
     FM261700 00000KT 2SM -SNRA BR OVC015
     FM262000 00000KT 6SM BR BKN015 OVC035
     FM262300 00000KT P6SM OVC025=

USA.gov is the U.S. government's official web portal to all federal, state and local government web resources and services.